Time;durP1;ratioP1;P1;durP2;ratioP2;P2;SDS_P1;SDS_P2;PMS_P1;PMS_P2;Temp;Humidity;BMP_temperature;BMP_pressure;BME280_temperature;BME280_humidity;BME280_pressure;Samples;Min_cycle;Max_cycle;Signal;HPM_P1;HPM_P2
2022/04/03 00:04:12;;;;;;;1.35;0.60;;;;;;;18.32;27.86;102241.75;16132094;19;129586;-41
2022/04/03 00:09:33;;;;;;;1.35;0.68;;;;;;;18.29;27.71;102239.38;16135142;19;129001;-45
2022/04/03 00:14:55;;;;;;;0.85;0.52;;;;;;;18.26;28.09;102242.56;16133963;19;129263;-41
2022/04/03 00:20:17;;;;;;;0.90;0.43;;;;;;;18.21;27.88;102243.22;16137756;19;129634;-41
2022/04/03 00:25:39;;;;;;;2.42;0.60;;;;;;;18.20;27.66;102244.28;16139389;19;129750;-41
2022/04/03 00:31:01;;;;;;;1.02;0.70;;;;;;;18.18;27.58;102248.31;16136870;19;129118;-40
2022/04/03 00:36:23;;;;;;;1.05;0.50;;;;;;;18.15;27.99;102246.84;16136343;19;130063;-41
2022/04/03 00:41:45;;;;;;;1.08;0.68;;;;;;;18.12;27.76;102239.78;16134553;19;131417;-40
2022/04/03 00:47:07;;;;;;;0.90;0.60;;;;;;;18.11;28.01;102242.78;16130692;19;129483;-41
2022/04/03 00:52:29;;;;;;;0.70;0.60;;;;;;;18.08;27.86;102248.72;16133980;19;130064;-43
2022/04/03 00:57:51;;;;;;;2.75;0.80;;;;;;;18.05;28.32;102244.47;16132789;19;130404;-41
2022/04/03 01:03:12;;;;;;;0.65;0.50;;;;;;;18.03;28.31;102235.53;16128221;19;130347;-41
2022/04/03 01:08:34;;;;;;;1.70;0.60;;;;;;;18.02;27.81;102238.50;16130720;19;129173;-41
2022/04/03 01:13:57;;;;;;;1.10;0.55;;;;;;;17.99;28.06;102237.00;16133301;19;131913;-41
2022/04/03 01:19:19;;;;;;;1.58;0.60;;;;;;;17.97;28.28;102242.75;16129041;19;129605;-41
2022/04/03 01:24:43;;;;;;;0.68;0.55;;;;;;;17.96;27.97;102234.66;16131898;19;129731;-41
2022/04/03 01:30:06;;;;;;;0.75;0.60;;;;;;;17.93;28.52;102244.22;16146766;19;129050;-44
2022/04/03 01:35:28;;;;;;;0.93;0.60;;;;;;;17.91;28.52;102239.97;16147186;19;129547;-42
2022/04/03 01:40:50;;;;;;;1.20;0.60;;;;;;;17.89;28.38;102233.78;16144111;19;130625;-41
2022/04/03 01:46:12;;;;;;;0.63;0.60;;;;;;;17.85;28.10;102231.41;16145222;19;130336;-40
2022/04/03 01:51:34;;;;;;;0.82;0.50;;;;;;;17.85;28.04;102233.34;16142795;19;129943;-42
2022/04/03 01:56:56;;;;;;;0.90;0.60;;;;;;;17.83;27.98;102233.56;16145566;19;129423;-41
2022/04/03 02:02:18;;;;;;;2.08;0.80;;;;;;;17.81;28.13;102223.75;16143727;19;129055;-40
2022/04/03 02:07:40;;;;;;;1.13;0.60;;;;;;;17.79;28.32;102223.97;16146420;19;129906;-40
2022/04/03 02:13:01;;;;;;;1.00;0.50;;;;;;;17.77;28.51;102220.56;16146701;19;129253;-40
2022/04/03 02:18:23;;;;;;;0.80;0.43;;;;;;;17.76;28.56;102221.63;16142885;19;129645;-42
2022/04/03 02:23:45;;;;;;;0.73;0.43;;;;;;;17.74;28.16;102220.97;16140532;19;130437;-41
2022/04/03 02:29:07;;;;;;;0.75;0.55;;;;;;;17.72;28.52;102225.88;16146732;19;129914;-42
2022/04/03 02:34:29;;;;;;;1.25;0.50;;;;;;;17.71;28.25;102226.06;16146615;19;129069;-40
2022/04/03 02:39:51;;;;;;;0.60;0.50;;;;;;;17.67;28.10;102215.41;16139464;19;129981;-42
2022/04/03 02:45:15;;;;;;;0.50;0.38;;;;;;;17.67;28.39;102220.09;16137042;19;129467;-42
2022/04/03 02:50:37;;;;;;;0.55;0.40;;;;;;;17.66;28.27;102218.41;16144159;19;130590;-43
2022/04/03 02:55:58;;;;;;;0.90;0.70;;;;;;;17.63;28.20;102216.91;16142266;19;129999;-42
2022/04/03 03:01:20;;;;;;;1.27;0.38;;;;;;;17.62;28.68;102217.97;16140475;19;129745;-42
2022/04/03 03:06:42;;;;;;;0.85;0.30;;;;;;;17.62;28.57;102211.56;16144295;19;129523;-42
2022/04/03 03:12:05;;;;;;;0.73;0.40;;;;;;;17.59;28.48;102223.06;16143222;19;130392;-44
2022/04/03 03:17:27;;;;;;;0.38;0.28;;;;;;;17.59;28.25;102220.28;16142728;19;129634;-41
2022/04/03 03:22:49;;;;;;;0.60;0.40;;;;;;;17.55;28.42;102219.84;16140059;19;128852;-41
2022/04/03 03:28:12;;;;;;;3.15;0.57;;;;;;;17.53;28.58;102231.09;16134616;19;129443;-40
2022/04/03 03:33:34;;;;;;;0.60;0.40;;;;;;;17.52;28.45;102234.91;16141953;19;130401;-41
2022/04/03 03:38:56;;;;;;;0.60;0.40;;;;;;;17.50;28.25;102241.72;16141920;19;130156;-42
2022/04/03 03:44:18;;;;;;;0.28;0.28;;;;;;;17.48;28.49;102241.06;16137284;19;129516;-43
2022/04/03 03:49:39;;;;;;;0.47;0.35;;;;;;;17.46;28.26;102232.13;16137328;19;130743;-43
2022/04/03 03:55:01;;;;;;;0.77;0.47;;;;;;;17.44;28.33;102237.00;16140924;19;129502;-42
2022/04/03 04:00:23;;;;;;;0.52;0.47;;;;;;;17.40;28.43;102231.03;16139392;19;129230;-41
2022/04/03 04:05:45;;;;;;;0.60;0.40;;;;;;;17.39;28.36;102240.38;16132738;19;129042;-41
2022/04/03 04:11:07;;;;;;;0.40;0.30;;;;;;;17.38;28.38;102244.22;16136938;19;129112;-41
2022/04/03 04:16:28;;;;;;;0.43;0.40;;;;;;;17.35;28.25;102248.25;16138520;19;130267;-42
2022/04/03 04:21:51;;;;;;;0.52;0.30;;;;;;;17.34;28.26;102254.00;16134172;19;130001;-42
2022/04/03 04:27:12;;;;;;;0.63;0.40;;;;;;;17.33;27.99;102257.81;16135680;19;129215;-42
2022/04/03 04:32:34;;;;;;;1.38;0.50;;;;;;;17.31;28.10;102259.94;16139377;19;131845;-42
2022/04/03 04:37:56;;;;;;;0.98;0.50;;;;;;;17.29;28.18;102256.50;16134469;19;128923;-42
2022/04/03 04:43:17;;;;;;;0.75;0.40;;;;;;;17.28;28.00;102265.88;16130972;19;129433;-43
2022/04/03 04:48:39;;;;;;;0.35;0.35;;;;;;;17.27;28.42;102264.16;16135780;19;129358;-43
2022/04/03 04:54:01;;;;;;;0.95;0.52;;;;;;;17.25;28.29;102267.13;16134331;19;129369;-44
2022/04/03 04:59:23;;;;;;;0.70;0.50;;;;;;;17.25;28.12;102278.19;16144235;19;130100;-41
2022/04/03 05:04:44;;;;;;;0.90;0.50;;;;;;;17.23;28.22;102283.06;16162235;19;129850;-40
2022/04/03 05:10:07;;;;;;;0.88;0.47;;;;;;;17.20;28.33;102276.06;16166333;19;129272;-43
2022/04/03 05:15:31;;;;;;;0.43;0.30;;;;;;;17.19;28.09;102288.16;16165654;19;130313;-41
2022/04/03 05:20:52;;;;;;;0.40;0.40;;;;;;;17.18;28.25;102286.47;16164923;19;129512;-41
2022/04/03 05:26:15;;;;;;;0.45;0.32;;;;;;;17.16;28.11;102291.34;16164483;19;130827;-42
2022/04/03 05:31:39;;;;;;;0.47;0.40;;;;;;;17.15;28.14;102286.03;16166017;19;129535;-41
2022/04/03 05:37:00;;;;;;;0.45;0.30;;;;;;;17.18;27.92;102293.88;16161677;19;128928;-41
2022/04/03 05:42:23;;;;;;;0.73;0.30;;;;;;;17.37;27.98;102284.00;16161724;19;129902;-41
2022/04/03 05:47:44;;;;;;;0.63;0.30;;;;;;;17.79;27.60;102295.94;16158748;19;130676;-44
2022/04/03 05:53:06;;;;;;;0.20;0.20;;;;;;;18.46;27.03;102303.59;16162783;19;130057;-42
2022/04/03 05:58:28;;;;;;;0.20;0.20;;;;;;;19.22;26.43;102309.75;16163235;19;129713;-42
2022/04/03 06:03:50;;;;;;;0.43;0.35;;;;;;;19.98;25.93;102310.97;16154596;19;129306;-41
2022/04/03 06:09:12;;;;;;;0.30;0.28;;;;;;;20.50;25.40;102298.03;16163168;19;130630;-43
2022/04/03 06:14:34;;;;;;;0.68;0.30;;;;;;;20.65;25.42;102306.06;16144946;19;129860;-41
2022/04/03 06:19:56;;;;;;;0.47;0.40;;;;;;;20.58;25.52;102312.53;16143772;19;129546;-44
2022/04/03 06:25:20;;;;;;;0.50;0.40;;;;;;;20.45;25.61;102307.06;16141726;19;128991;-41
2022/04/03 06:30:41;;;;;;;0.52;0.25;;;;;;;20.26;25.28;102314.47;16145264;19;129088;-41
2022/04/03 06:36:04;;;;;;;0.50;0.40;;;;;;;20.06;25.43;102309.06;16144959;19;129222;-43
2022/04/03 06:41:25;;;;;;;1.08;0.47;;;;;;;19.85;25.85;102319.38;16140964;19;129525;-42
2022/04/03 06:46:47;;;;;;;0.50;0.30;;;;;;;19.66;25.79;102332.25;16137974;19;129819;-45
2022/04/03 06:52:09;;;;;;;0.40;0.30;;;;;;;19.47;26.06;102328.47;16142310;19;131286;-41
2022/04/03 06:57:32;;;;;;;0.52;0.40;;;;;;;19.30;26.17;102334.50;16143095;19;130544;-43
2022/04/03 07:02:54;;;;;;;0.75;0.40;;;;;;;19.18;26.25;102338.97;16140418;19;129209;-41
2022/04/03 07:08:16;;;;;;;0.75;0.30;;;;;;;19.04;26.74;102339.00;16144716;19;129970;-42
2022/04/03 07:13:38;;;;;;;0.43;0.40;;;;;;;19.02;26.94;102335.56;16144009;19;129496;-41
2022/04/03 07:19:00;;;;;;;3.63;0.80;;;;;;;19.18;26.30;102334.28;16142993;19;129272;-41
2022/04/03 07:24:22;;;;;;;1.20;0.73;;;;;;;19.49;25.86;102326.34;16140102;19;129248;-41
2022/04/03 07:29:44;;;;;;;2.65;0.90;;;;;;;19.88;25.95;102330.03;16138406;19;129560;-42
2022/04/03 07:35:06;;;;;;;3.95;1.15;;;;;;;20.25;25.62;102338.63;16140405;19;129648;-41
2022/04/03 07:40:28;;;;;;;4.88;0.88;;;;;;;20.53;25.11;102336.53;16139009;19;129236;-43
2022/04/03 07:46:15;;;;;;;2.78;1.02;;;;;;;20.71;25.20;102338.53;16131325;19;131093;-44
2022/04/03 07:51:37;;;;;;;4.10;1.27;;;;;;;20.77;25.24;102340.44;16138738;19;131077;-44
2022/04/03 07:56:59;;;;;;;4.43;1.08;;;;;;;20.79;25.25;102343.84;16133432;19;131588;-41
2022/04/03 08:02:20;;;;;;;3.13;0.90;;;;;;;20.79;25.75;102348.56;16132258;19;130941;-41
2022/04/03 08:07:44;;;;;;;3.65;1.00;;;;;;;20.78;25.93;102350.50;16131450;19;129880;-43
2022/04/03 08:13:06;;;;;;;3.88;1.15;;;;;;;20.76;25.60;102352.66;16137678;19;129475;-42
2022/04/03 08:18:28;;;;;;;3.30;1.08;;;;;;;20.75;25.93;102350.91;16135102;19;129722;-40
2022/04/03 08:23:56;;;;;;;2.05;1.10;;;;;;;20.71;26.20;102349.66;16130139;19;129888;-42
2022/04/03 08:29:17;;;;;;;2.53;0.77;;;;;;;20.66;26.72;102353.09;16128873;19;129333;-44
2022/04/03 08:34:40;;;;;;;2.55;0.98;;;;;;;20.62;27.19;102357.41;16121402;19;130886;-45
2022/04/03 08:40:06;;;;;;;5.20;0.90;;;;;;;20.53;27.38;102358.75;16126255;19;130651;-42
2022/04/03 08:45:29;;;;;;;3.95;0.90;;;;;;;20.47;27.68;102357.72;16121821;19;129983;-42
2022/04/03 08:50:54;;;;;;;2.22;0.90;;;;;;;20.40;27.30;102365.28;16127863;19;129705;-41
2022/04/03 08:56:16;;;;;;;1.90;0.70;;;;;;;20.34;27.89;102366.16;16135784;19;129956;-42
2022/04/03 09:01:38;;;;;;;1.90;0.70;;;;;;;20.28;27.84;102366.00;16129294;19;129071;-42
2022/04/03 09:07:00;;;;;;;4.47;0.88;;;;;;;20.21;28.06;102367.09;16127385;19;129303;-42
2022/04/03 09:12:22;;;;;;;2.58;0.80;;;;;;;20.14;27.46;102367.13;16131885;19;130334;-42
2022/04/03 09:17:50;;;;;;;5.35;0.70;;;;;;;20.05;27.57;102362.91;16130339;19;128973;-41
2022/04/03 09:23:18;;;;;;;3.75;0.90;;;;;;;19.98;27.65;102374.84;16132462;19;129634;-42
2022/04/03 09:28:39;;;;;;;8.88;1.13;;;;;;;19.88;27.32;102366.16;16131302;19;130222;-41
2022/04/03 09:34:06;;;;;;;2.13;0.80;;;;;;;19.80;26.52;102364.47;16132576;19;129949;-40
2022/04/03 09:39:30;;;;;;;2.20;0.63;;;;;;;19.71;26.74;102351.03;16130071;19;129461;-42
2022/04/03 09:44:52;;;;;;;3.08;0.70;;;;;;;19.64;26.18;102351.06;16130014;19;129663;-42
2022/04/03 09:50:14;;;;;;;1.92;0.65;;;;;;;19.58;26.04;102347.22;16148372;19;128872;-42
2022/04/03 09:55:41;;;;;;;3.25;0.80;;;;;;;19.52;26.23;102342.56;16146475;19;129555;-40
2022/04/03 10:01:40;;;;;;;1.80;0.50;;;;;;;19.48;26.23;102336.59;16146775;19;129178;-41
2022/04/03 10:07:04;;;;;;;2.10;0.63;;;;;;;19.40;26.17;102327.66;16137964;19;129733;-42
2022/04/03 10:12:25;;;;;;;2.08;0.50;;;;;;;19.31;25.90;102324.25;16145153;19;129117;-41
2022/04/03 10:17:47;;;;;;;1.92;0.50;;;;;;;19.24;25.67;102315.94;16144254;19;130168;-42
2022/04/03 10:23:11;;;;;;;1.15;0.60;;;;;;;19.24;25.96;102306.78;16143939;19;129974;-41
2022/04/03 10:28:35;;;;;;;2.25;0.50;;;;;;;19.24;26.23;102304.84;16143362;19;129445;-41
2022/04/03 10:33:57;;;;;;;1.88;0.40;;;;;;;19.21;26.10;102302.50;16140595;19;130598;-39
2022/04/03 10:39:24;;;;;;;1.23;0.50;;;;;;;19.17;26.23;102296.50;16144317;19;128989;-39
2022/04/03 10:45:11;;;;;;;1.50;0.38;;;;;;;19.16;25.94;102296.72;16142328;19;130172;-40
2022/04/03 10:51:01;;;;;;;2.30;0.40;;;;;;;19.13;26.37;102275.84;16145928;19;130456;-40
2022/04/03 10:56:28;;;;;;;1.65;0.40;;;;;;;19.13;26.27;102277.72;16138293;19;130267;-40
2022/04/03 11:01:50;;;;;;;0.80;0.32;;;;;;;19.12;26.01;102265.81;16143107;19;128924;-40
2022/04/03 11:07:13;;;;;;;1.98;0.60;;;;;;;19.04;25.46;102261.34;16139071;19;129818;-41
2022/04/03 11:12:54;;;;;;;1.98;0.50;;;;;;;18.91;24.42;102250.25;16140876;19;129833;-41
2022/04/03 11:18:52;;;;;;;1.40;0.55;;;;;;;18.77;23.50;102261.38;16139669;19;130458;-40
2022/04/03 11:24:15;;;;;;;3.30;0.43;;;;;;;18.61;23.05;102264.56;16137616;19;130086;-40
2022/04/03 11:29:37;;;;;;;1.40;0.50;;;;;;;18.53;22.63;102256.47;16140990;19;130757;-40
2022/04/03 11:35:01;;;;;;;1.92;0.52;;;;;;;18.44;22.04;102248.38;16141988;19;130205;-40
2022/04/03 11:40:23;;;;;;;1.83;0.45;;;;;;;18.36;21.88;102244.94;16139095;19;129266;-42
2022/04/03 11:45:57;;;;;;;1.83;0.40;;;;;;;18.26;21.87;102239.81;16135710;19;129239;-42
2022/04/03 11:51:20;;;;;;;6.55;0.60;;;;;;;18.23;22.19;102234.69;16131590;19;129549;-40
2022/04/03 11:56:42;;;;;;;1.95;0.40;;;;;;;18.24;21.88;102228.94;16132340;19;129494;-43
2022/04/03 12:02:12;;;;;;;8.32;0.60;;;;;;;18.29;22.15;102228.31;16136173;19;129652;-41
2022/04/03 12:07:34;;;;;;;6.15;0.50;;;;;;;18.31;22.04;102227.03;16135112;19;129059;-40
2022/04/03 12:12:59;;;;;;;5.53;0.70;;;;;;;18.29;22.06;102229.16;16137496;19;130092;-40
2022/04/03 12:18:20;;;;;;;5.03;0.82;;;;;;;18.29;22.94;102228.31;16137395;19;130169;-40
2022/04/03 12:24:03;;;;;;;10.48;0.75;;;;;;;18.27;22.98;102224.88;16139922;19;129883;-40
2022/04/03 12:29:31;;;;;;;8.95;0.70;;;;;;;18.23;22.74;102223.59;16136261;19;129484;-40
2022/04/03 12:34:53;;;;;;;2.85;0.43;;;;;;;18.22;22.81;102224.66;16136516;19;130316;-41
2022/04/03 12:40:16;;;;;;;11.90;0.80;;;;;;;18.36;22.64;102228.31;16137499;19;128851;-41
2022/04/03 12:45:38;;;;;;;6.43;0.60;;;;;;;18.51;22.67;102219.81;16133517;19;129247;-39
2022/04/03 12:51:07;;;;;;;3.30;0.30;;;;;;;18.58;22.61;102226.22;16135626;19;128883;-40
2022/04/03 12:58:24;;;;;;;4.72;0.57;;;;;;;18.52;22.86;102224.28;16136570;19;129802;-39
2022/04/03 13:02:10;;;;;;;4.00;0.60;;;;;;;18.45;22.78;102218.75;16136464;19;129389;-40
2022/04/03 13:07:32;;;;;;;3.17;0.60;;;;;;;18.40;22.98;102224.94;16131223;19;130536;-41
2022/04/03 13:12:54;;;;;;;46.28;2.50;;;;;;;18.34;23.98;102222.97;16130450;19;129672;-40
2022/04/03 13:18:15;;;;;;;78.03;4.05;;;;;;;18.30;23.56;102227.25;16133655;19;131842;-43
2022/04/03 13:23:37;;;;;;;54.17;2.67;;;;;;;18.27;23.65;102220.22;16143421;19;129985;-42
2022/04/03 13:28:59;;;;;;;34.67;2.45;;;;;;;18.23;23.62;102212.53;16149607;19;129221;-42
2022/04/03 13:34:21;;;;;;;23.38;1.35;;;;;;;18.22;24.26;102211.69;16150291;19;129484;-42
2022/04/03 13:39:43;;;;;;;22.08;1.83;;;;;;;18.20;24.11;102199.13;16149869;19;129810;-42
2022/04/03 13:45:05;;;;;;;11.98;0.90;;;;;;;18.18;24.03;102187.38;16145280;19;129041;-40
2022/04/03 13:50:27;;;;;;;15.45;1.35;;;;;;;18.15;24.04;102195.06;16145329;19;130788;-40
2022/04/03 13:55:49;;;;;;;14.73;1.50;;;;;;;18.13;24.15;102182.50;16142939;19;129288;-41
2022/04/03 14:01:11;;;;;;;11.80;1.10;;;;;;;18.19;24.28;102178.03;16146602;19;129726;-44
2022/04/03 14:06:33;;;;;;;9.77;0.77;;;;;;;18.40;24.58;102180.59;16145702;19;129465;-39
2022/04/03 14:11:55;;;;;;;6.28;0.70;;;;;;;18.86;24.16;102161.31;16146288;19;129391;-41
2022/04/03 14:17:17;;;;;;;8.38;1.23;;;;;;;19.40;23.51;102159.19;16147368;19;129629;-41
2022/04/03 14:22:39;;;;;;;4.40;0.50;;;;;;;19.95;23.50;102163.34;16147195;19;130527;-40
2022/04/03 14:28:01;;;;;;;7.03;0.70;;;;;;;20.39;22.99;102153.16;16140233;19;129501;-43
2022/04/03 14:33:23;;;;;;;2.60;0.70;;;;;;;20.82;22.93;102142.28;16140251;19;129892;-40
2022/04/03 14:38:45;;;;;;;2.13;0.50;;;;;;;21.15;22.29;102139.09;16142415;19;130637;-40
2022/04/03 14:44:07;;;;;;;3.97;0.50;;;;;;;21.34;22.41;102130.69;16144156;19;130750;-40
2022/04/03 14:49:29;;;;;;;4.20;0.60;;;;;;;21.35;22.52;102124.06;16139273;19;130113;-41
2022/04/03 14:54:51;;;;;;;2.53;0.40;;;;;;;21.27;22.54;102118.81;16144948;19;129546;-40
2022/04/03 15:00:14;;;;;;;1.85;0.32;;;;;;;21.14;22.55;102115.13;16143493;19;129325;-40
2022/04/03 15:05:38;;;;;;;2.08;0.50;;;;;;;20.99;22.63;102123.03;16141568;19;130944;-42
2022/04/03 15:11:00;;;;;;;0.70;0.30;;;;;;;20.81;22.58;102121.94;16141862;19;129536;-41
2022/04/03 15:16:22;;;;;;;3.47;0.50;;;;;;;20.64;22.89;102110.56;16140068;19;129719;-40
2022/04/03 15:21:44;;;;;;;4.45;0.60;;;;;;;20.51;23.21;102106.03;16141912;19;131055;-40
2022/04/03 15:27:05;;;;;;;3.67;0.50;;;;;;;20.49;23.06;102113.72;16136757;19;130455;-40
2022/04/03 15:32:27;;;;;;;1.95;0.40;;;;;;;20.62;23.42;102095.22;16139154;19;131643;-39
2022/04/03 15:37:51;;;;;;;9.15;0.50;;;;;;;20.89;23.16;102095.75;16138704;19;129842;-47
2022/04/03 15:43:13;;;;;;;5.90;0.60;;;;;;;21.17;22.69;102097.94;16132999;19;130128;-42
2022/04/03 15:48:35;;;;;;;2.05;0.50;;;;;;;21.38;22.43;102092.97;16130943;19;129735;-45
2022/04/03 15:53:58;;;;;;;3.88;0.50;;;;;;;21.54;21.98;102098.97;16139889;19;130040;-41
2022/04/03 15:59:21;;;;;;;2.05;0.50;;;;;;;21.68;21.99;102103.22;16135702;19;129818;-43
2022/04/03 16:04:42;;;;;;;1.98;0.40;;;;;;;21.81;21.96;102103.03;16136596;19;130081;-45
2022/04/03 16:10:24;;;;;;;2.42;0.40;;;;;;;21.83;21.68;102106.41;16136318;19;129845;-42
2022/04/03 16:15:46;;;;;;;1.95;0.32;;;;;;;21.77;21.45;102114.88;16139902;19;130913;-40
2022/04/03 16:21:08;;;;;;;1.42;0.65;;;;;;;21.60;21.69;102109.16;16135814;19;130150;-40
2022/04/03 16:26:31;;;;;;;4.43;1.60;;;;;;;21.39;21.90;102116.94;16131407;19;129365;-40
2022/04/03 16:31:55;;;;;;;5.38;1.60;;;;;;;21.21;22.21;102110.31;16136005;19;129808;-41
2022/04/03 16:37:17;;;;;;;2.13;1.45;;;;;;;21.08;22.66;102106.88;16136913;19;129732;-40
2022/04/03 16:42:42;;;;;;;3.95;1.48;;;;;;;20.93;23.13;102102.56;16137245;19;128948;-42
2022/04/03 16:48:04;;;;;;;3.35;1.10;;;;;;;20.81;23.50;102110.00;16131427;19;129346;-40
2022/04/03 16:53:26;;;;;;;1.63;0.93;;;;;;;20.70;23.46;102108.78;16135991;19;129503;-40
2022/04/03 16:58:49;;;;;;;4.85;0.80;;;;;;;20.59;23.74;102104.88;16133493;19;129882;-43
2022/04/03 17:04:11;;;;;;;4.50;1.20;;;;;;;20.49;23.92;102108.19;16131922;19;129278;-41
2022/04/03 17:09:33;;;;;;;1.13;0.70;;;;;;;20.39;24.35;102103.13;16136646;19;129116;-41
2022/04/03 17:14:54;;;;;;;2.58;1.13;;;;;;;20.29;24.02;102103.69;16135888;19;129645;-44
2022/04/03 17:20:19;;;;;;;1.48;0.70;;;;;;;20.21;24.25;102101.19;16134849;19;129289;-41
2022/04/03 17:25:41;;;;;;;2.78;0.70;;;;;;;20.11;24.63;102100.84;16132894;19;129780;-41
2022/04/03 17:31:04;;;;;;;1.63;0.70;;;;;;;20.02;24.79;102091.94;16130449;19;129451;-44
2022/04/03 17:36:25;;;;;;;1.38;0.70;;;;;;;19.94;24.61;102090.28;16133589;19;129737;-46
2022/04/03 17:41:49;;;;;;;0.98;0.60;;;;;;;19.85;25.14;102080.53;16132222;19;129696;-40
2022/04/03 17:47:11;;;;;;;2.42;0.60;;;;;;;19.80;24.93;102088.72;16128514;19;129458;-43
2022/04/03 17:52:33;;;;;;;0.88;0.57;;;;;;;19.90;25.04;102089.03;16135318;19;130046;-46
2022/04/03 17:57:54;;;;;;;2.15;0.40;;;;;;;20.29;24.40;102091.69;16130050;19;129381;-40
2022/04/03 18:03:16;;;;;;;1.10;0.40;;;;;;;20.77;24.36;102092.94;16130640;19;129852;-44
2022/04/03 18:08:39;;;;;;;0.93;0.40;;;;;;;21.21;23.77;102099.19;16133104;19;129520;-43
2022/04/03 18:14:01;;;;;;;2.97;0.88;;;;;;;21.58;23.63;102098.28;16144014;19;129825;-44
2022/04/03 18:19:24;;;;;;;7.95;1.10;;;;;;;21.81;24.00;102093.81;16135504;19;129940;-42
2022/04/03 18:24:47;;;;;;;2.92;0.98;;;;;;;21.96;24.12;102082.22;16140114;19;129860;-43
2022/04/03 18:30:09;;;;;;;1.38;0.68;;;;;;;21.95;23.72;102075.81;16140073;19;129751;-45
2022/04/03 18:35:32;;;;;;;1.88;0.88;;;;;;;21.83;23.95;102067.41;16140858;19;129766;-43
2022/04/03 18:40:54;;;;;;;3.20;0.70;;;;;;;21.67;24.24;102074.56;16138691;19;129450;-44
2022/04/03 18:46:16;;;;;;;5.40;0.70;;;;;;;21.51;24.73;102087.22;16135333;19;129895;-42
2022/04/03 18:51:38;;;;;;;4.00;0.70;;;;;;;21.36;24.52;102090.41;16142645;19;129009;-42
2022/04/03 18:57:00;;;;;;;2.10;0.60;;;;;;;21.31;24.60;102108.91;16144377;19;130397;-44
2022/04/03 19:02:21;;;;;;;2.22;0.50;;;;;;;21.35;25.11;102110.13;16143316;19;129236;-43
2022/04/03 19:07:43;;;;;;;1.20;0.50;;;;;;;21.46;24.94;102114.91;16141574;19;129858;-42
2022/04/03 19:13:07;;;;;;;1.35;0.63;;;;;;;21.58;24.81;102120.53;16142412;19;128875;-41
2022/04/03 19:18:29;;;;;;;1.67;0.50;;;;;;;21.72;24.97;102115.59;16142447;19;130402;-40
2022/04/03 19:23:53;;;;;;;1.08;0.40;;;;;;;21.80;24.78;102119.97;16142625;19;129468;-41
2022/04/03 19:29:15;;;;;;;2.03;0.47;;;;;;;21.90;24.94;102122.19;16136206;19;129083;-44
2022/04/03 19:34:38;;;;;;;0.93;0.50;;;;;;;22.01;25.14;102124.16;16141207;19;129691;-46
2022/04/03 19:40:02;;;;;;;1.65;0.50;;;;;;;22.09;25.08;102114.59;16141418;19;129213;-43
2022/04/03 19:45:25;;;;;;;1.25;0.50;;;;;;;22.17;25.05;102124.50;16139072;19;129935;-47
2022/04/03 19:50:47;;;;;;;1.23;0.40;;;;;;;22.22;24.93;102113.53;16140302;19;129296;-47
2022/04/03 19:56:10;;;;;;;0.98;0.30;;;;;;;22.27;24.83;102117.28;16142668;19;129330;-41
2022/04/03 20:01:32;;;;;;;1.77;0.40;;;;;;;22.35;24.89;102118.00;16139636;19;130309;-41
2022/04/03 20:06:54;;;;;;;0.80;0.40;;;;;;;22.41;24.84;102115.06;16137703;19;130546;-49
2022/04/03 20:12:16;;;;;;;0.60;0.40;;;;;;;22.40;24.80;102110.59;16136080;19;130030;-47
2022/04/03 20:17:38;;;;;;;0.70;0.30;;;;;;;22.29;25.07;102119.81;16136107;19;129335;-45
2022/04/03 20:22:59;;;;;;;1.50;0.45;;;;;;;22.13;24.86;102111.06;16138309;19;130600;-48
2022/04/03 20:28:23;;;;;;;1.42;0.47;;;;;;;21.95;25.06;102112.03;16136564;19;129309;-43
2022/04/03 20:33:48;;;;;;;2.45;0.38;;;;;;;21.75;25.63;102103.13;16137165;19;129792;-43
2022/04/03 20:39:11;;;;;;;1.92;0.50;;;;;;;21.55;25.33;102098.72;16139263;19;130653;-46
2022/04/03 20:44:33;;;;;;;0.73;0.50;;;;;;;21.35;25.86;102096.22;16135907;19;129742;-47
2022/04/03 20:49:55;;;;;;;2.22;0.52;;;;;;;21.18;25.84;102088.53;16133342;19;131549;-43
2022/04/03 20:55:18;;;;;;;1.10;0.40;;;;;;;21.03;25.84;102090.91;16135597;19;130105;-43
2022/04/03 21:00:40;;;;;;;1.45;0.43;;;;;;;20.86;25.79;102094.31;16137835;19;129518;-44
2022/04/03 21:06:02;;;;;;;1.13;0.40;;;;;;;20.73;26.07;102078.63;16134708;19;128963;-42
2022/04/03 21:11:24;;;;;;;1.15;0.40;;;;;;;20.60;26.22;102076.00;16135663;19;130231;-43
2022/04/03 21:16:45;;;;;;;0.85;0.50;;;;;;;20.45;26.56;102063.31;16136048;19;129533;-42
2022/04/03 21:22:07;;;;;;;1.02;0.40;;;;;;;20.35;26.49;102056.59;16134298;19;130258;-41
2022/04/03 21:27:29;;;;;;;1.30;0.47;;;;;;;20.25;26.79;102060.75;16132755;19;129404;-42
2022/04/03 21:32:55;;;;;;;1.65;0.50;;;;;;;20.15;26.74;102046.53;16136296;19;129592;-44
2022/04/03 21:38:17;;;;;;;1.45;0.40;;;;;;;20.06;26.58;102042.38;16135358;19;129079;-43
2022/04/03 21:43:40;;;;;;;1.05;0.40;;;;;;;19.97;26.76;102039.00;16145053;19;130202;-42
2022/04/03 21:49:05;;;;;;;1.17;0.43;;;;;;;19.89;26.54;102031.81;16147092;19;129661;-41
2022/04/03 21:54:27;;;;;;;1.23;0.47;;;;;;;19.82;26.80;102031.00;16149414;19;129485;-45
2022/04/03 21:59:49;;;;;;;1.17;0.45;;;;;;;19.74;26.85;102036.84;16151284;19;129000;-42
2022/04/03 22:05:10;;;;;;;1.65;0.50;;;;;;;19.66;26.67;102030.50;16151942;19;129875;-44
2022/04/03 22:10:32;;;;;;;1.77;0.52;;;;;;;19.61;26.60;102030.31;16145057;19;129704;-42
2022/04/03 22:15:54;;;;;;;1.15;0.60;;;;;;;19.56;27.12;102027.41;16145675;19;129093;-45
2022/04/03 22:21:16;;;;;;;1.00;0.40;;;;;;;19.51;26.86;102021.66;16144915;19;129698;-43
2022/04/03 22:26:38;;;;;;;0.30;0.30;;;;;;;19.46;26.72;102018.69;16148280;19;129851;-46
2022/04/03 22:31:59;;;;;;;0.90;0.38;;;;;;;19.41;26.91;102015.78;16148310;19;129080;-42
2022/04/03 22:37:21;;;;;;;0.88;0.50;;;;;;;19.37;27.25;102018.16;16147529;19;129601;-42
2022/04/03 22:42:43;;;;;;;0.77;0.50;;;;;;;19.32;27.15;102016.03;16148248;19;128864;-43
2022/04/03 22:48:05;;;;;;;1.67;0.60;;;;;;;19.29;27.06;102010.06;16140208;19;131694;-42
2022/04/03 22:53:27;;;;;;;0.77;0.75;;;;;;;19.22;26.59;101994.34;16142338;19;129437;-45
2022/04/03 22:58:49;;;;;;;1.20;0.70;;;;;;;19.17;26.65;102001.59;16145077;19;130019;-44
2022/04/03 23:04:11;;;;;;;0.65;0.57;;;;;;;19.13;27.00;102000.34;16145034;19;129573;-44
2022/04/03 23:09:32;;;;;;;0.98;0.50;;;;;;;19.11;26.64;101991.41;16140289;19;129656;-42
2022/04/03 23:14:57;;;;;;;1.13;0.50;;;;;;;19.09;27.00;101977.75;16143265;19;129400;-42
2022/04/03 23:20:19;;;;;;;1.45;0.60;;;;;;;19.05;26.74;101965.41;16141073;19;129078;-42
2022/04/03 23:25:41;;;;;;;0.47;0.40;;;;;;;19.03;26.90;101965.63;16143656;19;129027;-44
2022/04/03 23:31:03;;;;;;;0.95;0.50;;;;;;;19.00;26.68;101956.94;16144505;19;129626;-45
2022/04/03 23:36:25;;;;;;;0.73;0.50;;;;;;;18.95;26.73;101949.28;16143208;19;129094;-42
2022/04/03 23:41:47;;;;;;;1.92;0.50;;;;;;;18.92;26.83;101944.16;16144711;19;130655;-44
2022/04/03 23:47:08;;;;;;;1.08;0.60;;;;;;;18.89;27.07;101944.63;16137498;19;129017;-42
2022/04/03 23:52:30;;;;;;;0.77;0.60;;;;;;;18.86;26.93;101940.38;16142683;19;130021;-42
2022/04/03 23:57:52;;;;;;;0.40;0.30;;;;;;;18.85;26.95;101938.66;16142049;19;129679;-42
